createdAt,value
2022-10-03T00:00:19.455Z,7.77
2022-10-03T00:03:10.348Z,7.20
2022-10-03T00:05:52.351Z,7.60
2022-10-03T00:08:39.508Z,8.07
2022-10-03T00:11:23.178Z,7.50
2022-10-03T00:14:02.813Z,7.60
2022-10-03T00:16:40.430Z,8.70
2022-10-03T00:22:19.751Z,7.90
2022-10-03T00:25:31.326Z,7.40
2022-10-03T00:28:14.831Z,8.13
2022-10-03T00:30:57.956Z,7.70
2022-10-03T00:33:35.806Z,7.50
2022-10-03T00:36:14.073Z,8.10
2022-10-03T00:39:07.160Z,7.07
2022-10-03T00:42:06.683Z,6.63
2022-10-03T00:45:10.520Z,7.80
2022-10-03T00:48:02.359Z,7.40
2022-10-03T00:51:06.165Z,7.70
2022-10-03T00:54:01.415Z,8.03
2022-10-03T00:56:48.879Z,7.30
2022-10-03T00:59:50.729Z,7.10
2022-10-03T01:02:57.632Z,7.03
2022-10-03T01:05:38.578Z,7.20
2022-10-03T01:08:35.200Z,7.10
2022-10-03T01:11:17.411Z,8.00
2022-10-03T01:13:58.545Z,6.80
2022-10-03T01:16:38.861Z,6.47
2022-10-03T01:19:40.830Z,7.07
2022-10-03T01:22:27.765Z,6.50
2022-10-03T01:25:00.545Z,6.33
2022-10-03T01:27:59.977Z,6.70
2022-10-03T01:30:39.564Z,6.60
2022-10-03T01:33:15.182Z,6.07
2022-10-03T01:35:56.131Z,6.07
2022-10-03T01:38:31.379Z,5.67
2022-10-03T01:41:04.900Z,5.67
2022-10-03T01:43:57.096Z,5.77
2022-10-03T01:46:37.646Z,5.10
2022-10-03T01:49:15.242Z,6.43
2022-10-03T01:51:53.478Z,6.30
2022-10-03T01:54:29.627Z,6.10
2022-10-03T01:57:02.023Z,5.57
2022-10-03T01:59:39.913Z,5.93
2022-10-03T02:02:13.972Z,5.70
2022-10-03T02:04:48.783Z,5.87
2022-10-03T02:07:25.403Z,5.37
2022-10-03T02:10:04.055Z,4.60
2022-10-03T02:12:39.096Z,4.53
2022-10-03T02:15:17.753Z,4.60
2022-10-03T02:17:57.920Z,4.80
2022-10-03T02:20:34.039Z,4.70
2022-10-03T02:23:02.372Z,4.73
2022-10-03T02:25:53.095Z,5.20
2022-10-03T02:28:59.605Z,5.00
2022-10-03T02:32:11.537Z,5.17
2022-10-03T02:35:10.869Z,4.97
2022-10-03T02:38:05.808Z,5.47
2022-10-03T02:41:01.560Z,5.27
2022-10-03T02:44:14.422Z,5.07
2022-10-03T02:47:33.337Z,5.67
2022-10-03T02:50:27.944Z,5.53
2022-10-03T02:53:30.340Z,5.43
2022-10-03T02:56:44.193Z,5.57
2022-10-03T02:59:59.277Z,5.40
2022-10-03T03:03:01.493Z,5.10
2022-10-03T03:06:12.108Z,5.87
2022-10-03T03:09:26.241Z,5.03
2022-10-03T03:12:41.087Z,5.50
2022-10-03T03:15:59.649Z,6.07
2022-10-03T03:18:35.961Z,5.00
2022-10-03T03:21:17.022Z,5.00
2022-10-03T03:24:17.165Z,4.90
2022-10-03T03:27:01.735Z,4.90
2022-10-03T03:29:41.953Z,4.53
2022-10-03T03:32:27.334Z,4.90
2022-10-03T03:35:07.411Z,4.43
2022-10-03T03:37:46.490Z,4.80
2022-10-03T03:40:36.314Z,5.40
2022-10-03T03:43:23.790Z,5.27
2022-10-03T03:46:06.005Z,4.53
2022-10-03T03:48:55.494Z,4.70
2022-10-03T03:51:35.179Z,4.97
2022-10-03T03:54:32.980Z,4.80
2022-10-03T03:57:28.954Z,5.20
2022-10-03T04:00:18.123Z,5.13
2022-10-03T04:03:18.868Z,5.13
2022-10-03T04:06:06.059Z,5.17
2022-10-03T04:09:18.996Z,5.60
2022-10-03T04:11:57.851Z,5.03
2022-10-03T04:14:51.277Z,4.83
2022-10-03T04:18:06.014Z,5.10
2022-10-03T04:20:58.720Z,4.93
2022-10-03T04:24:07.768Z,4.73
2022-10-03T04:26:52.603Z,4.73
2022-10-03T04:29:56.629Z,5.07
2022-10-03T04:32:49.904Z,5.47
2022-10-03T04:35:48.688Z,5.50
2022-10-03T04:38:22.380Z,5.40
2022-10-03T04:40:59.873Z,4.37
2022-10-03T04:43:38.563Z,4.17
2022-10-03T04:46:24.034Z,3.70
2022-10-03T04:49:01.658Z,4.60
2022-10-03T04:51:44.556Z,5.77
2022-10-03T04:57:01.107Z,4.50
2022-10-03T04:59:47.521Z,4.70
2022-10-03T05:02:28.754Z,4.37
2022-10-03T05:05:15.912Z,5.27
2022-10-03T05:07:53.576Z,5.10
2022-10-03T05:10:32.329Z,5.23
2022-10-03T05:13:12.278Z,4.67
2022-10-03T05:15:52.044Z,4.77
2022-10-03T05:18:27.028Z,4.90
2022-10-03T05:21:02.928Z,5.37
2022-10-03T05:23:48.935Z,4.67
2022-10-03T05:26:44.511Z,5.53
2022-10-03T05:29:21.002Z,5.00
2022-10-03T05:31:58.065Z,4.60
2022-10-03T05:34:56.324Z,5.30
2022-10-03T05:37:48.851Z,5.03
2022-10-03T05:40:22.210Z,5.23
2022-10-03T05:43:03.882Z,5.93
2022-10-03T05:45:43.243Z,4.97
2022-10-03T05:48:25.527Z,4.80
2022-10-03T05:51:20.975Z,4.97
2022-10-03T05:54:22.269Z,4.83
2022-10-03T05:57:26.818Z,5.37
2022-10-03T06:04:39.175Z,4.90
2022-10-03T06:07:26.613Z,5.33
2022-10-03T06:10:34.303Z,5.77
2022-10-03T06:13:18.465Z,5.27
2022-10-03T06:16:08.733Z,5.57
2022-10-03T06:19:10.879Z,5.27
2022-10-03T06:22:11.539Z,5.13
2022-10-03T06:25:20.396Z,5.13
2022-10-03T06:28:39.673Z,5.57
2022-10-03T06:31:45.169Z,4.90
2022-10-03T06:34:53.427Z,5.20
2022-10-03T06:37:57.984Z,5.30
2022-10-03T06:40:59.865Z,5.23
2022-10-03T06:43:57.215Z,5.47
2022-10-03T06:46:53.477Z,5.60
2022-10-03T06:49:43.866Z,5.57
2022-10-03T06:52:42.678Z,5.47
2022-10-03T06:56:03.777Z,5.80
2022-10-03T06:59:05.634Z,5.90
2022-10-03T07:02:06.609Z,5.97
2022-10-03T07:05:11.445Z,6.10
2022-10-03T07:08:23.894Z,6.70
2022-10-03T07:11:07.355Z,6.20
2022-10-03T07:14:16.203Z,5.73
2022-10-03T07:17:17.589Z,4.80
2022-10-03T07:20:24.093Z,5.03
2022-10-03T07:23:28.278Z,5.03
2022-10-03T07:34:23.180Z,4.80
2022-10-03T07:40:51.292Z,5.23
2022-10-03T07:43:47.219Z,4.80
2022-10-03T07:46:47.941Z,5.27
2022-10-03T07:53:17.164Z,5.13
2022-10-03T07:56:09.826Z,5.00
2022-10-03T07:58:56.223Z,5.60
2022-10-03T08:09:04.608Z,5.53
2022-10-03T08:12:08.730Z,5.30
2022-10-03T08:14:52.929Z,5.57
2022-10-03T08:17:59.238Z,5.50
2022-10-03T08:21:01.428Z,4.77
2022-10-03T08:24:11.707Z,5.03
2022-10-03T08:27:00.915Z,5.17
2022-10-03T08:29:47.298Z,4.93
2022-10-03T08:33:01.469Z,4.77
2022-10-03T08:39:14.297Z,4.30
2022-10-03T08:42:14.467Z,4.97
2022-10-03T08:45:06.187Z,5.03
2022-10-03T08:48:17.692Z,5.47
2022-10-03T08:51:34.317Z,5.47
2022-10-03T08:54:11.113Z,4.67
2022-10-03T08:56:58.855Z,4.70
2022-10-03T09:00:20.620Z,4.87
2022-10-03T09:03:43.347Z,4.17
2022-10-03T09:07:12.583Z,3.93
2022-10-03T09:10:22.783Z,3.70
2022-10-03T09:13:11.971Z,3.73
2022-10-03T09:16:21.032Z,3.63
2022-10-03T09:19:13.731Z,3.57
2022-10-03T09:22:19.625Z,3.70
2022-10-03T09:25:12.647Z,3.40
2022-10-03T09:31:38.016Z,3.43
2022-10-03T09:38:01.396Z,3.03
2022-10-03T09:41:03.163Z,2.80
2022-10-03T09:44:37.225Z,3.07
2022-10-03T09:48:00.728Z,2.93
2022-10-03T09:51:29.792Z,3.17
2022-10-03T09:54:35.210Z,3.90
2022-10-03T09:57:47.168Z,2.83
2022-10-03T10:00:28.980Z,2.50
2022-10-03T10:03:48.209Z,3.10
2022-10-03T10:06:52.804Z,2.67
2022-10-03T10:09:58.279Z,3.23
2022-10-03T10:12:52.575Z,2.77
2022-10-03T10:15:51.331Z,2.93
2022-10-03T10:19:09.683Z,2.60
2022-10-03T10:22:12.664Z,2.43
2022-10-03T10:25:18.817Z,2.40
2022-10-03T10:28:30.406Z,2.80
2022-10-03T10:31:48.839Z,2.57
2022-10-03T10:34:55.711Z,3.03
2022-10-03T10:38:03.716Z,2.30
2022-10-03T10:41:09.104Z,2.00
2022-10-03T10:44:21.041Z,2.33
2022-10-03T10:47:52.482Z,2.33
2022-10-03T10:51:19.061Z,3.07
2022-10-03T10:54:41.699Z,2.70
2022-10-03T10:57:40.667Z,2.00
2022-10-03T11:00:28.269Z,1.90
2022-10-03T11:03:53.459Z,2.20
2022-10-03T11:07:18.182Z,2.07
2022-10-03T11:10:51.589Z,1.70
2022-10-03T11:14:00.975Z,2.43
2022-10-03T11:17:20.152Z,1.90
2022-10-03T11:20:44.979Z,2.30
2022-10-03T11:23:55.810Z,1.90
2022-10-03T11:27:10.082Z,2.43
2022-10-03T11:30:19.453Z,1.50
2022-10-03T11:40:36.902Z,1.80
2022-10-03T11:43:33.082Z,2.23
2022-10-03T11:46:29.076Z,1.80
2022-10-03T11:49:12.746Z,1.80
2022-10-03T11:51:52.810Z,1.97
2022-10-03T11:54:32.224Z,1.80
2022-10-03T11:57:19.540Z,2.13
2022-10-03T12:00:28.852Z,2.00
2022-10-03T12:03:20.376Z,1.77
2022-10-03T12:06:14.370Z,1.80
2022-10-03T12:09:24.628Z,2.33
2022-10-03T12:12:10.158Z,2.00
2022-10-03T12:14:46.840Z,2.00
2022-10-03T12:17:23.828Z,1.77
2022-10-03T12:20:06.278Z,1.40
2022-10-03T12:22:55.111Z,2.00
2022-10-03T12:25:25.967Z,1.80
2022-10-03T12:31:19.438Z,1.97
2022-10-03T12:33:59.704Z,2.20
2022-10-03T12:36:56.348Z,1.70
2022-10-03T12:39:50.318Z,2.23
2022-10-03T12:42:40.789Z,2.10
2022-10-03T12:45:24.529Z,1.40
2022-10-03T12:48:17.230Z,1.83
2022-10-03T12:51:08.752Z,2.00
2022-10-03T12:53:56.972Z,1.90
2022-10-03T12:57:00.135Z,1.67
2022-10-03T12:59:57.290Z,1.87
2022-10-03T13:03:33.179Z,1.50
2022-10-03T13:10:11.688Z,1.70
2022-10-03T13:12:59.127Z,1.73
2022-10-03T13:16:33.367Z,1.50
2022-10-03T13:19:20.557Z,1.80
2022-10-03T13:22:31.136Z,2.20
2022-10-03T13:25:19.394Z,2.03
2022-10-03T13:28:02.309Z,1.70
2022-10-03T13:31:01.634Z,2.20
2022-10-03T13:33:33.567Z,2.33
2022-10-03T13:36:15.029Z,2.30
2022-10-03T13:39:08.853Z,2.37
2022-10-03T13:42:02.443Z,2.30
2022-10-03T13:44:38.568Z,1.97
2022-10-03T13:47:20.605Z,1.90
2022-10-03T13:53:29.670Z,2.17
2022-10-03T14:00:01.612Z,1.50
2022-10-03T14:03:01.799Z,1.90
2022-10-03T14:05:56.696Z,2.07
2022-10-03T14:08:46.303Z,1.90
2022-10-03T14:11:30.268Z,2.00
2022-10-03T14:14:34.437Z,2.03
2022-10-03T14:17:12.810Z,1.87
2022-10-03T14:19:51.306Z,2.03
2022-10-03T14:25:48.380Z,2.40
2022-10-03T14:28:39.367Z,2.30
2022-10-03T14:31:16.383Z,1.80
2022-10-03T14:33:50.478Z,2.10
2022-10-03T14:36:35.778Z,1.60
2022-10-03T14:39:35.819Z,2.07
2022-10-03T14:42:29.176Z,2.20
2022-10-03T14:45:06.573Z,2.10
2022-10-03T14:51:15.125Z,2.00
2022-10-03T14:53:56.395Z,1.87
2022-10-03T14:56:27.686Z,1.90
2022-10-03T14:58:59.123Z,2.17
2022-10-03T15:01:28.872Z,1.73
2022-10-03T15:04:04.421Z,2.10
2022-10-03T15:06:38.710Z,1.77
2022-10-03T15:09:12.759Z,2.23
2022-10-03T15:11:49.531Z,2.37
2022-10-03T15:14:18.437Z,2.20
2022-10-03T15:17:07.218Z,2.20
2022-10-03T15:19:44.937Z,2.00
2022-10-03T15:22:46.886Z,1.90
2022-10-03T15:28:16.075Z,2.40
2022-10-03T15:37:23.090Z,2.30
2022-10-03T15:39:54.349Z,2.90
2022-10-03T15:42:35.111Z,3.10
2022-10-03T15:45:34.900Z,2.73
2022-10-03T15:48:13.801Z,3.33
2022-10-03T15:50:57.694Z,3.77
2022-10-03T15:53:54.310Z,4.37
2022-10-03T16:00:03.897Z,3.70
2022-10-03T16:02:47.129Z,4.20
2022-10-03T16:05:31.942Z,3.63
2022-10-03T16:08:06.879Z,3.43
2022-10-03T16:10:40.722Z,3.77
2022-10-03T16:13:26.820Z,4.23
2022-10-03T16:16:16.983Z,3.50
2022-10-03T16:18:54.882Z,3.90
2022-10-03T16:21:23.402Z,3.30
2022-10-03T16:24:14.901Z,4.07
2022-10-03T16:26:53.252Z,3.83
2022-10-03T16:29:28.719Z,3.70
2022-10-03T16:35:59.206Z,3.20
2022-10-03T16:38:35.421Z,2.60
2022-10-03T16:41:10.443Z,3.40
2022-10-03T16:43:59.827Z,3.67
2022-10-03T16:47:05.843Z,3.37
2022-10-03T16:50:02.680Z,3.60
2022-10-03T16:52:34.645Z,3.73
2022-10-03T16:55:11.560Z,3.60
2022-10-03T16:57:58.500Z,4.20
2022-10-03T17:00:47.569Z,4.33
2022-10-03T17:06:32.080Z,4.97
2022-10-03T17:09:09.786Z,7.20
2022-10-03T17:11:41.830Z,4.53
2022-10-03T17:14:15.181Z,4.77
2022-10-03T17:16:54.057Z,4.40
2022-10-03T17:19:33.417Z,5.47
2022-10-03T17:22:47.601Z,4.40
2022-10-03T17:28:54.878Z,5.90
2022-10-03T17:31:35.456Z,4.67
2022-10-03T17:34:13.856Z,5.10
2022-10-03T17:40:22.487Z,3.83
2022-10-03T17:43:12.939Z,4.00
2022-10-03T17:45:52.601Z,4.60
2022-10-03T17:58:31.901Z,4.40
2022-10-03T18:01:08.039Z,5.43
2022-10-03T18:03:46.758Z,6.10
2022-10-03T18:06:54.582Z,5.90
2022-10-03T18:10:01.249Z,5.60
2022-10-03T18:12:39.776Z,5.13
2022-10-03T18:15:42.667Z,4.97
2022-10-03T18:18:48.796Z,4.27
2022-10-03T18:21:40.667Z,4.37
2022-10-03T18:28:24.342Z,5.00
2022-10-03T18:34:18.042Z,4.57
2022-10-03T18:36:51.587Z,5.03
2022-10-03T18:39:24.196Z,6.83
2022-10-03T18:41:58.455Z,5.10
2022-10-03T18:44:33.300Z,5.10
2022-10-03T18:47:27.202Z,7.53
2022-10-03T18:50:06.503Z,6.77
2022-10-03T18:52:53.721Z,5.97
2022-10-03T18:55:44.005Z,6.57
2022-10-03T18:58:20.803Z,7.47
2022-10-03T19:01:00.733Z,6.30
2022-10-03T19:03:38.347Z,8.60
2022-10-03T19:06:41.697Z,7.90
2022-10-03T19:09:32.587Z,6.70
2022-10-03T19:12:32.306Z,6.47
2022-10-03T19:15:27.937Z,5.37
2022-10-03T19:18:23.406Z,6.13
2022-10-03T19:20:58.031Z,6.43
2022-10-03T19:23:34.526Z,8.40
2022-10-03T19:26:07.840Z,5.87
2022-10-03T19:28:39.840Z,5.83
2022-10-03T19:31:17.104Z,6.97
2022-10-03T19:33:53.003Z,11.03
2022-10-03T19:36:28.060Z,7.20
2022-10-03T19:39:00.426Z,7.43
2022-10-03T19:41:34.737Z,6.43
2022-10-03T19:44:09.365Z,6.40
2022-10-03T19:46:58.213Z,6.20
2022-10-03T19:56:50.481Z,7.23
2022-10-03T19:59:37.518Z,7.03
2022-10-03T20:02:07.714Z,6.90
2022-10-03T20:04:38.895Z,7.13
2022-10-03T20:07:17.427Z,7.50
2022-10-03T20:09:58.613Z,6.23
2022-10-03T20:12:31.715Z,6.30
2022-10-03T20:15:08.890Z,7.03
2022-10-03T20:17:41.306Z,6.77
2022-10-03T20:20:21.667Z,6.70
2022-10-03T20:22:51.071Z,6.60
2022-10-03T20:25:37.374Z,9.70
2022-10-03T20:28:34.662Z,7.13
2022-10-03T20:31:03.479Z,6.50
2022-10-03T20:33:34.066Z,6.70
2022-10-03T20:36:11.074Z,6.80
2022-10-03T20:39:03.563Z,8.27
2022-10-03T20:41:41.756Z,6.60
2022-10-03T20:44:20.101Z,6.50
2022-10-03T20:46:52.402Z,9.70
2022-10-03T20:49:30.078Z,10.27
2022-10-03T20:52:04.182Z,9.93
2022-10-03T20:54:38.414Z,8.40
2022-10-03T20:57:23.789Z,6.33
2022-10-03T21:00:20.163Z,8.13
2022-10-03T21:03:08.571Z,9.47
2022-10-03T21:05:43.308Z,8.50
2022-10-03T21:08:20.725Z,7.33
2022-10-03T21:10:55.445Z,6.83
2022-10-03T21:13:35.160Z,7.10
2022-10-03T21:16:17.135Z,6.40
2022-10-03T21:18:54.670Z,7.53
2022-10-03T21:21:27.979Z,6.90
2022-10-03T21:24:08.144Z,7.03
2022-10-03T21:26:45.094Z,7.63
2022-10-03T21:29:38.769Z,6.37
2022-10-03T21:32:24.244Z,7.93
2022-10-03T21:35:02.138Z,8.10
2022-10-03T21:37:44.342Z,6.97
2022-10-03T21:40:28.378Z,6.67
2022-10-03T21:50:05.621Z,5.67
2022-10-03T21:52:49.947Z,5.50
2022-10-03T21:56:16.529Z,6.50
2022-10-03T21:59:06.963Z,6.57
2022-10-03T22:01:47.097Z,6.40
2022-10-03T22:04:24.178Z,6.27
2022-10-03T22:07:04.925Z,5.70
2022-10-03T22:09:33.564Z,6.03
2022-10-03T22:12:08.078Z,5.90
2022-10-03T22:14:46.177Z,6.07
2022-10-03T22:17:23.325Z,5.83
2022-10-03T22:20:03.175Z,5.60
2022-10-03T22:22:44.126Z,5.67
2022-10-03T22:25:31.577Z,5.23
2022-10-03T22:28:15.383Z,7.30
2022-10-03T22:30:56.601Z,6.27
2022-10-03T22:33:36.359Z,5.83
2022-10-03T22:36:05.335Z,5.63
2022-10-03T22:38:37.115Z,5.33
2022-10-03T22:41:08.465Z,5.23
2022-10-03T22:43:40.027Z,5.27
2022-10-03T22:46:21.000Z,5.37
2022-10-03T22:48:55.113Z,5.30
2022-10-03T22:51:23.557Z,5.23
2022-10-03T22:53:57.124Z,5.00
2022-10-03T22:56:43.641Z,5.07
2022-10-03T22:59:20.947Z,5.07
2022-10-03T23:01:51.530Z,5.17
2022-10-03T23:04:31.767Z,4.50
2022-10-03T23:07:33.645Z,5.30
2022-10-03T23:10:26.624Z,4.80
2022-10-03T23:13:02.320Z,5.03
2022-10-03T23:15:35.497Z,4.90
2022-10-03T23:18:37.266Z,5.00
2022-10-03T23:21:11.961Z,5.10
2022-10-03T23:24:05.852Z,5.03
2022-10-03T23:27:07.978Z,5.10
2022-10-03T23:29:39.003Z,5.03
2022-10-03T23:32:15.678Z,5.10
2022-10-03T23:34:53.565Z,5.60
2022-10-03T23:37:40.598Z,5.00
2022-10-03T23:40:46.764Z,5.37
2022-10-03T23:43:40.052Z,5.13
2022-10-03T23:46:14.015Z,5.37
2022-10-03T23:49:00.409Z,5.37
2022-10-03T23:51:36.119Z,5.00
2022-10-03T23:54:09.028Z,5.23
2022-10-03T23:56:41.138Z,4.87
2022-10-03T23:59:28.130Z,5.50
